Time;durP1;ratioP1;P1;durP2;ratioP2;P2;SDS_P1;SDS_P2;PMS_P1;PMS_P2;Temp;Humidity;BMP_temperature;BMP_pressure;BME280_temperature;BME280_humidity;BME280_pressure;Samples;Min_cycle;Max_cycle;Signal;HPM_P1;HPM_P2
2020/12/15 00:01:56;;;;;;;16.43;8.50;;;6.30;91.90;;;;;;5032273;28;20451;-73
2020/12/15 00:04:23;;;;;;;14.53;8.17;;;6.40;91.80;;;;;;5032112;28;20490;-75
2020/12/15 00:06:48;;;;;;;17.73;8.47;;;6.40;91.70;;;;;;5033676;28;20428;-74
2020/12/15 00:09:15;;;;;;;20.93;9.90;;;6.40;91.60;;;;;;5033893;28;20431;-74
2020/12/15 00:11:41;;;;;;;15.80;7.50;;;6.40;91.60;;;;;;5044964;28;20217;-74
2020/12/15 00:14:06;;;;;;;15.20;8.77;;;6.40;91.50;;;;;;5031121;28;20421;-74
2020/12/15 00:16:32;;;;;;;15.73;7.27;;;6.40;91.30;;;;;;5026231;28;20528;-74
2020/12/15 00:18:58;;;;;;;16.10;7.50;;;6.40;91.10;;;;;;5013953;28;20229;-74
2020/12/15 00:21:25;;;;;;;15.70;6.87;;;6.40;90.60;;;;;;5033387;28;20546;-74
2020/12/15 00:23:53;;;;;;;18.90;9.60;;;6.50;90.30;;;;;;5031942;28;20638;-74
2020/12/15 00:26:20;;;;;;;15.70;8.00;;;6.50;90.50;;;;;;5033314;28;20431;-74
2020/12/15 00:28:48;;;;;;;15.93;7.70;;;6.50;90.70;;;;;;5032604;28;20503;-73
2020/12/15 00:31:15;;;;;;;14.80;6.80;;;6.60;90.70;;;;;;5031551;28;20482;-75
2020/12/15 00:33:41;;;;;;;13.33;6.80;;;6.60;90.50;;;;;;5031483;28;20464;-73
2020/12/15 00:36:07;;;;;;;20.27;7.83;;;6.60;90.40;;;;;;5032721;28;20498;-74
2020/12/15 00:38:33;;;;;;;17.63;7.57;;;6.60;90.20;;;;;;5032432;28;20189;-75
2020/12/15 00:40:59;;;;;;;11.23;7.10;;;6.70;90.10;;;;;;5032898;28;20440;-73
2020/12/15 00:43:25;;;;;;;13.50;7.60;;;6.70;89.90;;;;;;5032699;28;20236;-74
2020/12/15 00:45:51;;;;;;;14.70;6.87;;;6.70;89.90;;;;;;5033191;28;20186;-74
2020/12/15 00:48:16;;;;;;;12.60;6.97;;;6.80;89.70;;;;;;5033932;28;20208;-75
2020/12/15 00:50:42;;;;;;;12.33;6.80;;;6.80;89.90;;;;;;5033374;28;20448;-74
2020/12/15 00:53:08;;;;;;;12.73;6.60;;;6.80;89.70;;;;;;5033910;28;20292;-73
2020/12/15 00:55:34;;;;;;;10.90;6.43;;;6.80;89.70;;;;;;5033695;28;20208;-73
2020/12/15 00:57:59;;;;;;;14.80;6.47;;;6.80;89.30;;;;;;5032080;28;21005;-73
2020/12/15 01:00:25;;;;;;;11.23;6.03;;;6.80;89.30;;;;;;5030852;28;20221;-72
2020/12/15 01:02:51;;;;;;;10.43;5.77;;;6.80;89.30;;;;;;5032341;28;20185;-72
2020/12/15 01:05:17;;;;;;;11.10;6.40;;;6.90;89.50;;;;;;5032246;28;20428;-72
2020/12/15 01:07:43;;;;;;;12.17;5.97;;;6.90;89.00;;;;;;5030674;28;20280;-73
2020/12/15 01:10:09;;;;;;;13.13;7.43;;;6.90;88.60;;;;;;5032508;28;20237;-72
2020/12/15 01:12:36;;;;;;;11.97;6.40;;;6.90;88.40;;;;;;5031322;28;20215;-73
2020/12/15 01:15:01;;;;;;;11.33;6.50;;;6.90;88.70;;;;;;5030787;28;20448;-74
2020/12/15 01:17:27;;;;;;;11.50;5.67;;;6.90;88.90;;;;;;5032194;28;20471;-75
2020/12/15 01:19:53;;;;;;;12.47;6.30;;;7.00;89.00;;;;;;5030566;28;20189;-74
2020/12/15 01:22:18;;;;;;;10.80;6.10;;;7.00;89.00;;;;;;5032126;28;20197;-74
2020/12/15 01:24:44;;;;;;;12.00;6.00;;;7.00;89.00;;;;;;5032273;28;20184;-72
2020/12/15 01:27:10;;;;;;;10.17;5.70;;;7.10;88.60;;;;;;5032869;28;20189;-73
2020/12/15 01:29:36;;;;;;;11.13;6.10;;;7.10;88.10;;;;;;5031667;28;20606;-73
2020/12/15 01:32:03;;;;;;;10.63;5.20;;;7.10;88.30;;;;;;5030564;28;20456;-74
2020/12/15 01:34:29;;;;;;;12.13;6.30;;;7.10;88.10;;;;;;5031810;28;20181;-73
2020/12/15 01:36:56;;;;;;;10.03;5.40;;;7.10;88.00;;;;;;5031577;28;20456;-73
2020/12/15 01:39:25;;;;;;;8.97;5.47;;;7.10;87.80;;;;;;5031734;28;20499;-74
2020/12/15 01:41:51;;;;;;;7.00;4.43;;;7.20;87.70;;;;;;5032114;28;20974;-71
2020/12/15 01:44:17;;;;;;;10.90;5.10;;;7.20;87.30;;;;;;5031458;28;20475;-74
2020/12/15 01:46:43;;;;;;;8.63;4.13;;;7.20;87.00;;;;;;5030517;28;20428;-74
2020/12/15 01:49:09;;;;;;;10.40;4.80;;;7.20;87.00;;;;;;5031151;28;20427;-73
2020/12/15 01:51:35;;;;;;;11.00;4.97;;;7.20;87.00;;;;;;5043937;28;20293;-73
2020/12/15 01:54:03;;;;;;;9.60;4.63;;;7.30;86.50;;;;;;5030349;28;20859;-75
2020/12/15 01:56:29;;;;;;;8.47;5.03;;;7.20;86.90;;;;;;5012039;28;20468;-74
2020/12/15 01:59:02;;;;;;;10.50;5.67;;;7.20;86.60;;;;;;5011461;28;20428;-73
2020/12/15 02:01:28;;;;;;;12.37;5.53;;;7.30;86.30;;;;;;5011513;28;20531;-73
2020/12/15 02:03:54;;;;;;;9.50;4.87;;;7.30;86.50;;;;;;5010249;28;20873;-74
2020/12/15 02:06:22;;;;;;;8.63;4.23;;;7.30;86.00;;;;;;5016744;28;20181;-74
2020/12/15 02:08:48;;;;;;;7.53;3.93;;;7.30;86.60;;;;;;5031212;28;20192;-73
2020/12/15 02:11:14;;;;;;;8.37;4.77;;;7.30;86.90;;;;;;5031116;28;20452;-73
2020/12/15 02:13:40;;;;;;;7.37;4.60;;;7.30;87.00;;;;;;5030926;28;20507;-73
2020/12/15 02:16:10;;;;;;;9.83;4.23;;;7.30;86.60;;;;;;5029651;28;20463;-74
2020/12/15 02:18:38;;;;;;;9.00;4.53;;;7.40;86.20;;;;;;5030872;28;20454;-73
2020/12/15 02:21:08;;;;;;;11.13;4.40;;;7.30;85.90;;;;;;5029976;28;20452;-73
2020/12/15 02:23:35;;;;;;;9.67;5.07;;;7.40;86.00;;;;;;5029975;28;20435;-74
2020/12/15 02:26:06;;;;;;;9.73;5.43;;;7.40;85.90;;;;;;5031245;28;20432;-73
2020/12/15 02:28:33;;;;;;;11.03;5.13;;;7.40;86.30;;;;;;5030177;28;20468;-74
2020/12/15 02:30:58;;;;;;;10.97;5.83;;;7.40;86.60;;;;;;5032108;28;20444;-73
2020/12/15 02:33:24;;;;;;;9.20;4.60;;;7.40;86.90;;;;;;5031615;28;20447;-73
2020/12/15 02:35:53;;;;;;;9.30;5.00;;;7.40;87.10;;;;;;5031546;28;20189;-73
2020/12/15 02:38:20;;;;;;;9.63;5.30;;;7.40;87.30;;;;;;5031823;28;20945;-72
2020/12/15 02:40:45;;;;;;;6.93;4.40;;;7.40;87.40;;;;;;5033211;28;20470;-72
2020/12/15 02:43:11;;;;;;;10.37;4.60;;;7.40;87.00;;;;;;5031608;28;20459;-74
2020/12/15 02:45:37;;;;;;;10.83;5.13;;;7.30;86.30;;;;;;5032867;28;20181;-74
2020/12/15 02:48:03;;;;;;;11.07;5.60;;;7.30;86.60;;;;;;5032383;28;20427;-74
2020/12/15 02:50:29;;;;;;;10.93;5.57;;;7.30;86.30;;;;;;5038140;28;20209;-72
2020/12/15 02:52:55;;;;;;;10.20;5.10;;;7.40;85.90;;;;;;5035385;28;20461;-73
2020/12/15 02:55:22;;;;;;;12.53;6.37;;;7.30;86.20;;;;;;5038457;28;20459;-74
2020/12/15 02:57:52;;;;;;;16.07;7.50;;;7.30;86.30;;;;;;5036213;28;20212;-73
2020/12/15 03:00:21;;;;;;;16.87;9.33;;;7.30;87.10;;;;;;5034353;28;20466;-72
2020/12/15 03:02:48;;;;;;;21.23;10.90;;;7.20;87.30;;;;;;5030697;28;20412;-73
2020/12/15 03:05:14;;;;;;;17.77;10.10;;;7.10;87.40;;;;;;5030543;28;20423;-73
2020/12/15 03:07:40;;;;;;;19.63;9.70;;;7.00;88.00;;;;;;5030653;28;20424;-74
2020/12/15 03:10:08;;;;;;;18.90;10.10;;;7.00;88.60;;;;;;5031098;28;20786;-72
2020/12/15 03:12:34;;;;;;;23.20;10.47;;;7.00;88.70;;;;;;5030965;28;20432;-73
2020/12/15 03:14:59;;;;;;;17.40;9.47;;;7.00;88.30;;;;;;5029340;28;20428;-72
2020/12/15 03:17:25;;;;;;;16.50;8.70;;;6.90;88.90;;;;;;5030471;28;20554;-73
2020/12/15 03:19:51;;;;;;;16.07;8.50;;;6.80;89.60;;;;;;5030136;28;20193;-72
2020/12/15 03:22:17;;;;;;;17.57;8.30;;;6.70;89.70;;;;;;5030105;28;20446;-73
2020/12/15 03:24:43;;;;;;;16.57;8.47;;;6.80;89.30;;;;;;5030958;28;20254;-75
2020/12/15 03:27:09;;;;;;;15.40;7.97;;;6.80;88.90;;;;;;5032374;28;20247;-76
2020/12/15 03:29:35;;;;;;;14.40;7.63;;;6.80;88.60;;;;;;5031865;28;20425;-75
2020/12/15 03:32:01;;;;;;;14.80;7.83;;;6.90;88.30;;;;;;5030632;28;20731;-73
2020/12/15 03:34:27;;;;;;;14.30;6.97;;;6.90;88.10;;;;;;5031744;28;20201;-74
2020/12/15 03:36:52;;;;;;;13.57;6.00;;;7.00;87.70;;;;;;5032906;28;20466;-73
2020/12/15 03:39:18;;;;;;;14.17;8.00;;;7.10;87.40;;;;;;5031679;28;20255;-74
2020/12/15 03:41:44;;;;;;;15.57;7.70;;;7.20;86.60;;;;;;5031825;28;20474;-75
2020/12/15 03:44:10;;;;;;;14.37;7.20;;;7.20;86.60;;;;;;5030959;28;20200;-74
2020/12/15 03:46:36;;;;;;;13.07;6.83;;;7.10;86.60;;;;;;5030662;28;20596;-76
2020/12/15 03:49:01;;;;;;;16.00;8.97;;;7.20;86.80;;;;;;5029419;28;20494;-74
2020/12/15 03:51:27;;;;;;;16.00;8.50;;;7.20;86.60;;;;;;5030927;28;20454;-75
2020/12/15 03:53:53;;;;;;;17.70;9.33;;;7.10;86.90;;;;;;5030667;28;20193;-74
2020/12/15 03:56:19;;;;;;;16.60;9.40;;;7.20;86.90;;;;;;5030897;28;20208;-76
2020/12/15 03:58:44;;;;;;;18.13;9.10;;;7.10;86.90;;;;;;5030054;28;20589;-74
2020/12/15 04:01:10;;;;;;;16.40;8.80;;;7.10;87.10;;;;;;5031512;28;20255;-75
2020/12/15 04:03:36;;;;;;;17.97;8.67;;;7.10;87.60;;;;;;5031708;28;20224;-74
2020/12/15 04:06:02;;;;;;;17.67;9.73;;;7.10;87.70;;;;;;5031209;28;20186;-73
2020/12/15 04:08:27;;;;;;;19.37;9.13;;;7.10;88.10;;;;;;5030264;28;20193;-74
2020/12/15 04:10:53;;;;;;;16.87;7.97;;;7.20;88.10;;;;;;5028873;28;20212;-74
2020/12/15 04:13:19;;;;;;;11.93;6.60;;;7.20;87.70;;;;;;5031092;28;20201;-74
2020/12/15 04:15:46;;;;;;;16.90;8.13;;;7.20;87.30;;;;;;5032027;28;20454;-74
2020/12/15 04:18:12;;;;;;;11.80;6.07;;;7.30;86.60;;;;;;5033072;28;20827;-73
2020/12/15 04:20:38;;;;;;;15.90;7.13;;;7.30;86.20;;;;;;5029180;28;20510;-74
2020/12/15 04:23:04;;;;;;;10.37;5.77;;;7.40;85.60;;;;;;5029286;28;20443;-75
2020/12/15 04:25:30;;;;;;;12.00;6.27;;;7.40;85.50;;;;;;5029864;28;20494;-73
2020/12/15 04:27:55;;;;;;;14.40;6.50;;;7.50;85.20;;;;;;5029501;28;20506;-76
2020/12/15 04:30:21;;;;;;;13.00;5.73;;;7.50;85.00;;;;;;5030165;28;20444;-75
2020/12/15 04:32:47;;;;;;;11.30;5.40;;;7.50;84.40;;;;;;5029783;28;20200;-74
2020/12/15 04:35:14;;;;;;;11.30;5.80;;;7.60;84.30;;;;;;5031562;28;20193;-73
2020/12/15 04:37:40;;;;;;;15.33;5.93;;;7.60;84.40;;;;;;5041334;28;20539;-76
2020/12/15 04:40:06;;;;;;;11.70;5.13;;;7.70;83.60;;;;;;5025642;28;20564;-73
2020/12/15 04:42:34;;;;;;;11.37;5.80;;;7.70;83.80;;;;;;5016482;28;20464;-75
2020/12/15 04:44:59;;;;;;;13.80;6.13;;;7.70;83.30;;;;;;5021123;28;20193;-74
2020/12/15 04:47:39;;;;;;;10.13;5.50;;;7.80;82.70;;;;;;5017575;28;20428;-73
2020/12/15 04:50:10;;;;;;;12.10;5.97;;;7.70;82.80;;;;;;5016877;28;20223;-73
2020/12/15 04:52:58;;;;;;;8.80;5.43;;;7.60;82.80;;;;;;5015609;28;20854;-74
2020/12/15 04:55:25;;;;;;;10.13;4.50;;;7.60;83.40;;;;;;5021355;28;20452;-74
2020/12/15 04:57:53;;;;;;;11.30;5.47;;;7.60;83.10;;;;;;5031509;28;20479;-73
2020/12/15 05:00:19;;;;;;;10.87;5.70;;;7.60;82.40;;;;;;5032938;28;20447;-74
2020/12/15 05:02:52;;;;;;;10.17;5.37;;;7.60;82.10;;;;;;5031706;28;20810;-71
2020/12/15 05:05:21;;;;;;;10.93;5.73;;;7.60;82.10;;;;;;5032370;28;20462;-74
2020/12/15 05:07:47;;;;;;;11.40;5.47;;;7.70;82.10;;;;;;5031843;28;20427;-74
2020/12/15 05:10:18;;;;;;;11.10;5.40;;;7.70;81.80;;;;;;5031551;28;20483;-75
2020/12/15 05:12:45;;;;;;;10.10;5.70;;;7.70;82.10;;;;;;5032721;28;20834;-75
2020/12/15 05:15:12;;;;;;;10.93;5.20;;;7.70;82.20;;;;;;5032144;28;20420;-75
2020/12/15 05:17:39;;;;;;;10.77;5.60;;;7.80;82.70;;;;;;5031738;28;20498;-76
2020/12/15 05:20:06;;;;;;;11.50;6.40;;;7.80;83.10;;;;;;5032579;28;20451;-74
2020/12/15 05:22:58;;;;;;;10.53;4.83;;;7.80;83.60;;;;;;5034019;28;20523;-76
2020/12/15 05:25:29;;;;;;;11.70;5.50;;;7.80;84.00;;;;;;5031731;28;20459;-75
2020/12/15 05:27:58;;;;;;;13.40;6.27;;;7.80;83.80;;;;;;5032211;28;21292;-75
2020/12/15 05:30:24;;;;;;;10.57;5.40;;;7.70;84.00;;;;;;5032921;28;20486;-74
2020/12/15 05:32:57;;;;;;;11.27;6.13;;;7.70;84.00;;;;;;5032123;28;20452;-72
2020/12/15 05:35:28;;;;;;;9.90;5.40;;;7.80;84.30;;;;;;5031795;28;20438;-72
2020/12/15 05:37:59;;;;;;;12.53;5.60;;;7.70;84.40;;;;;;5032134;28;20459;-74
2020/12/15 05:40:25;;;;;;;12.50;7.00;;;7.80;84.60;;;;;;5031933;28;20451;-74
2020/12/15 05:42:59;;;;;;;13.63;7.50;;;7.80;84.40;;;;;;5030767;28;20794;-77
2020/12/15 05:45:25;;;;;;;15.20;8.33;;;7.80;84.70;;;;;;5031461;28;20805;-76
2020/12/15 05:48:09;;;;;;;14.63;8.20;;;7.70;85.30;;;;;;5026333;28;20577;-77
2020/12/15 05:50:40;;;;;;;19.37;8.60;;;7.70;85.00;;;;;;5028331;28;20450;-76
2020/12/15 05:53:08;;;;;;;19.87;8.77;;;7.70;85.30;;;;;;5015697;28;20425;-77
2020/12/15 05:55:34;;;;;;;16.90;8.63;;;7.60;85.30;;;;;;5011543;28;20433;-76
2020/12/15 05:58:00;;;;;;;15.47;8.57;;;7.60;85.30;;;;;;5011099;28;20563;-75
2020/12/15 06:00:33;;;;;;;15.43;8.60;;;7.60;85.50;;;;;;5009937;28;20453;-76
2020/12/15 06:03:06;;;;;;;14.67;7.83;;;7.60;85.60;;;;;;5011255;28;20429;-77
2020/12/15 06:05:36;;;;;;;14.50;7.67;;;7.60;85.90;;;;;;5010186;28;20425;-76
2020/12/15 06:08:04;;;;;;;14.23;8.20;;;7.70;85.70;;;;;;5028918;28;20439;-77
2020/12/15 06:10:32;;;;;;;12.90;7.33;;;7.70;85.50;;;;;;5017230;28;20556;-77
2020/12/15 06:12:59;;;;;;;14.70;7.27;;;7.70;85.60;;;;;;5017775;28;20432;-75
2020/12/15 06:15:26;;;;;;;13.27;6.87;;;7.70;85.70;;;;;;5029333;28;20525;-74
2020/12/15 06:17:58;;;;;;;11.00;5.90;;;7.70;86.00;;;;;;5030861;28;20476;-74
2020/12/15 06:20:32;;;;;;;10.37;5.97;;;7.80;86.60;;;;;;5030733;28;20462;-74
2020/12/15 06:22:59;;;;;;;13.10;6.13;;;7.80;85.90;;;;;;5029467;28;20428;-75
2020/12/15 06:25:30;;;;;;;13.27;7.37;;;7.80;86.00;;;;;;5030894;28;20535;-72
2020/12/15 06:28:03;;;;;;;20.53;8.90;;;7.80;85.50;;;;;;5030704;28;20428;-74
2020/12/15 06:30:34;;;;;;;16.27;8.40;;;7.80;84.90;;;;;;5030976;28;20825;-74
2020/12/15 06:33:02;;;;;;;15.37;7.97;;;7.90;85.30;;;;;;5030891;28;20420;-74
2020/12/15 06:35:28;;;;;;;18.30;8.80;;;7.90;85.50;;;;;;5033371;28;20420;-73
2020/12/15 06:37:54;;;;;;;19.87;8.97;;;7.90;85.50;;;;;;5031675;28;20475;-74
2020/12/15 06:40:20;;;;;;;16.37;9.07;;;7.80;86.00;;;;;;5030398;28;20205;-72
2020/12/15 06:42:54;;;;;;;14.90;8.87;;;7.80;86.20;;;;;;5028838;28;20446;-74
2020/12/15 06:45:22;;;;;;;22.43;10.57;;;7.90;86.20;;;;;;5024452;28;20957;-74
2020/12/15 06:48:21;;;;;;;16.97;10.07;;;7.90;86.00;;;;;;5010344;28;20519;-72
2020/12/15 06:50:47;;;;;;;26.70;10.07;;;7.90;85.30;;;;;;5010717;28;20467;-73
2020/12/15 06:53:18;;;;;;;18.03;7.80;;;7.90;85.20;;;;;;5027623;28;20427;-73
2020/12/15 06:55:45;;;;;;;16.60;7.80;;;7.90;85.50;;;;;;5027766;28;20420;-74
2020/12/15 06:58:18;;;;;;;11.80;6.40;;;7.90;85.90;;;;;;5026799;28;20571;-72
2020/12/15 07:00:44;;;;;;;12.60;6.87;;;7.90;86.00;;;;;;5027607;28;20942;-73
2020/12/15 07:03:10;;;;;;;12.90;7.77;;;7.90;86.00;;;;;;5027644;28;20423;-74
2020/12/15 07:05:36;;;;;;;13.50;6.63;;;7.90;85.70;;;;;;5011510;28;20280;-73
2020/12/15 07:08:11;;;;;;;12.40;6.63;;;7.90;86.00;;;;;;5027824;28;20436;-73
2020/12/15 07:10:43;;;;;;;14.70;7.90;;;7.80;86.20;;;;;;5027830;28;20477;-74
2020/12/15 07:13:12;;;;;;;13.63;6.33;;;7.80;86.30;;;;;;5011252;28;20431;-73
2020/12/15 07:15:38;;;;;;;13.73;7.10;;;7.80;86.30;;;;;;5011071;28;20432;-74
2020/12/15 07:18:04;;;;;;;13.90;6.77;;;7.80;86.00;;;;;;5027378;28;20881;-74
2020/12/15 07:20:31;;;;;;;19.30;8.40;;;7.80;86.30;;;;;;5027263;28;20285;-74
2020/12/15 07:22:56;;;;;;;12.20;6.57;;;7.80;85.50;;;;;;5027615;28;20435;-75
2020/12/15 07:25:22;;;;;;;12.87;7.80;;;7.80;84.30;;;;;;5027619;28;20458;-74
2020/12/15 07:27:49;;;;;;;13.63;7.10;;;7.80;83.30;;;;;;5017426;28;20431;-75
2020/12/15 07:30:20;;;;;;;12.80;6.63;;;7.80;83.00;;;;;;5030342;28;21012;-75
2020/12/15 07:32:48;;;;;;;12.37;6.90;;;7.70;83.60;;;;;;5030455;28;20466;-73
2020/12/15 07:35:20;;;;;;;13.90;6.90;;;7.70;83.60;;;;;;5030060;28;20420;-74
2020/12/15 07:37:48;;;;;;;14.03;6.47;;;7.70;83.60;;;;;;5029872;28;20471;-72
2020/12/15 07:40:16;;;;;;;11.60;6.60;;;7.70;83.60;;;;;;5030242;28;20522;-72
2020/12/15 07:42:56;;;;;;;13.70;7.80;;;7.70;84.10;;;;;;5030069;28;20444;-75
2020/12/15 07:45:24;;;;;;;12.00;7.87;;;7.70;84.30;;;;;;5030092;28;20914;-73
2020/12/15 07:47:51;;;;;;;13.27;7.23;;;7.80;84.60;;;;;;5029815;28;20428;-73
2020/12/15 07:50:17;;;;;;;13.90;7.70;;;7.80;84.60;;;;;;5029799;28;20901;-73
2020/12/15 07:52:43;;;;;;;16.30;8.13;;;7.90;84.70;;;;;;5029710;28;20458;-74
2020/12/15 07:55:12;;;;;;;15.40;8.50;;;7.90;84.60;;;;;;5029901;28;20455;-74
2020/12/15 07:57:40;;;;;;;16.93;8.47;;;7.90;84.70;;;;;;5028270;28;20227;-73
2020/12/15 08:00:21;;;;;;;15.70;8.20;;;7.90;84.90;;;;;;5030078;28;20443;-75
2020/12/15 08:02:48;;;;;;;17.40;8.77;;;8.00;85.20;;;;;;5028577;28;20939;-74
2020/12/15 08:05:15;;;;;;;17.43;8.93;;;8.00;85.30;;;;;;5030031;28;20494;-76
2020/12/15 08:07:51;;;;;;;15.30;9.30;;;8.10;85.00;;;;;;5028447;28;20506;-73
2020/12/15 08:10:28;;;;;;;20.83;9.63;;;8.20;85.00;;;;;;5031214;28;20479;-76
2020/12/15 08:12:59;;;;;;;19.73;9.27;;;8.30;84.90;;;;;;5033821;28;20427;-75
2020/12/15 08:15:27;;;;;;;17.93;9.10;;;8.40;84.30;;;;;;5033384;28;20523;-74
2020/12/15 08:17:54;;;;;;;15.07;8.20;;;8.40;84.10;;;;;;5032851;28;20474;-74
2020/12/15 08:20:28;;;;;;;19.70;8.60;;;8.50;84.40;;;;;;5034051;28;20821;-75
2020/12/15 08:23:10;;;;;;;16.47;8.63;;;8.50;85.00;;;;;;5032676;28;20435;-74
2020/12/15 08:25:43;;;;;;;16.93;9.50;;;8.60;84.40;;;;;;5032813;28;20423;-73
2020/12/15 08:28:24;;;;;;;18.97;9.57;;;8.60;84.10;;;;;;5033341;28;20585;-73
2020/12/15 08:30:55;;;;;;;21.90;9.30;;;8.60;84.30;;;;;;5033622;28;20456;-73
2020/12/15 08:33:28;;;;;;;18.07;8.37;;;8.60;84.10;;;;;;5033397;28;20484;-75
2020/12/15 08:35:56;;;;;;;14.83;8.63;;;8.50;83.80;;;;;;5032868;28;20942;-73
2020/12/15 08:38:25;;;;;;;14.80;7.43;;;8.50;83.70;;;;;;5033693;28;21119;-74
2020/12/15 08:41:03;;;;;;;14.13;8.07;;;8.50;84.00;;;;;;5032407;28;20463;-74
2020/12/15 08:43:29;;;;;;;14.90;7.60;;;8.50;84.40;;;;;;5032122;28;20487;-75
2020/12/15 08:45:55;;;;;;;15.50;8.73;;;8.50;84.70;;;;;;5033531;28;20428;-75
2020/12/15 08:48:25;;;;;;;14.10;7.93;;;8.50;84.90;;;;;;5032554;28;20463;-74
2020/12/15 08:50:52;;;;;;;14.67;8.27;;;8.60;84.90;;;;;;5033261;28;20542;-75
2020/12/15 08:53:20;;;;;;;17.07;8.50;;;8.60;84.70;;;;;;5033548;28;20501;-75
2020/12/15 08:55:47;;;;;;;18.93;8.50;;;8.70;84.60;;;;;;5033233;28;20844;-74
2020/12/15 08:58:13;;;;;;;21.57;8.73;;;8.70;84.40;;;;;;5031781;28;20478;-73
2020/12/15 09:00:42;;;;;;;14.63;7.80;;;8.70;84.60;;;;;;5035525;28;20558;-75
2020/12/15 09:03:09;;;;;;;17.70;8.87;;;8.70;84.90;;;;;;5034374;28;20416;-75
2020/12/15 09:05:55;;;;;;;15.93;7.97;;;8.70;84.30;;;;;;5031661;28;20459;-75
2020/12/15 09:08:23;;;;;;;25.70;10.07;;;8.80;84.60;;;;;;5020151;28;20427;-73
2020/12/15 09:10:50;;;;;;;26.23;9.23;;;8.80;84.90;;;;;;5033032;28;20465;-72
2020/12/15 09:13:16;;;;;;;22.87;10.20;;;8.70;85.20;;;;;;5024417;28;20421;-73
2020/12/15 09:15:47;;;;;;;16.97;9.63;;;8.80;85.30;;;;;;5014067;28;20455;-72
2020/12/15 09:18:14;;;;;;;17.93;9.20;;;8.70;85.00;;;;;;5019590;28;20531;-74
2020/12/15 09:20:40;;;;;;;20.60;9.70;;;8.70;85.20;;;;;;5036124;28;20443;-75
2020/12/15 09:23:06;;;;;;;25.10;10.30;;;8.70;85.30;;;;;;5035928;28;20452;-74
2020/12/15 09:25:32;;;;;;;18.77;9.77;;;8.70;85.00;;;;;;5040200;28;20428;-72
2020/12/15 09:27:57;;;;;;;23.43;9.90;;;8.70;84.60;;;;;;5034018;28;20196;-73
2020/12/15 09:30:23;;;;;;;23.70;9.70;;;8.70;84.90;;;;;;5032031;28;20225;-73
2020/12/15 09:32:49;;;;;;;19.57;9.07;;;8.70;85.20;;;;;;5031879;28;20189;-73
2020/12/15 09:35:15;;;;;;;26.33;9.70;;;8.70;85.30;;;;;;5031615;28;20204;-73
2020/12/15 09:37:41;;;;;;;23.30;10.53;;;8.70;85.70;;;;;;5031531;28;21213;-74
2020/12/15 09:40:09;;;;;;;18.40;9.57;;;8.70;86.00;;;;;;5032014;28;20447;-73
2020/12/15 09:42:42;;;;;;;21.70;8.73;;;8.80;85.70;;;;;;5032508;28;20456;-74
2020/12/15 09:45:08;;;;;;;20.10;9.53;;;8.80;85.20;;;;;;5030657;28;20431;-74
2020/12/15 09:47:39;;;;;;;18.20;9.83;;;8.90;84.00;;;;;;5031497;28;20424;-72
2020/12/15 09:50:05;;;;;;;15.60;9.13;;;8.90;83.70;;;;;;5031868;28;20197;-74
2020/12/15 09:52:30;;;;;;;16.57;8.87;;;9.00;83.30;;;;;;5030496;28;20843;-74
2020/12/15 09:54:56;;;;;;;20.30;9.43;;;9.00;83.10;;;;;;5031333;28;20427;-74
2020/12/15 09:57:22;;;;;;;18.30;9.77;;;9.00;83.10;;;;;;5031352;28;20209;-73
2020/12/15 09:59:48;;;;;;;17.33;9.77;;;9.10;82.40;;;;;;5032460;28;20186;-75
2020/12/15 10:02:14;;;;;;;18.37;10.90;;;9.20;82.50;;;;;;5041499;28;20292;-73
2020/12/15 10:04:39;;;;;;;22.77;10.63;;;9.30;81.80;;;;;;5039636;28;20250;-73
2020/12/15 10:07:05;;;;;;;20.73;10.23;;;9.20;81.20;;;;;;5031189;28;20196;-74
2020/12/15 10:09:31;;;;;;;24.23;10.53;;;9.20;81.50;;;;;;5031416;28;20583;-74
2020/12/15 10:11:56;;;;;;;20.57;9.70;;;9.30;81.70;;;;;;5030884;28;20232;-74
2020/12/15 10:14:22;;;;;;;18.60;8.83;;;9.30;81.80;;;;;;5029793;28;20717;-74
2020/12/15 10:16:48;;;;;;;21.20;10.33;;;9.30;81.80;;;;;;5030999;28;20200;-72
2020/12/15 10:19:14;;;;;;;21.43;11.00;;;9.40;81.80;;;;;;5030848;28;20204;-73
2020/12/15 10:21:40;;;;;;;25.03;10.10;;;9.50;81.20;;;;;;5031607;28;20467;-76
2020/12/15 10:24:05;;;;;;;23.73;11.90;;;9.60;81.10;;;;;;5030045;28;20192;-73
2020/12/15 10:26:31;;;;;;;29.10;12.17;;;9.70;80.60;;;;;;5030994;28;20272;-72
2020/12/15 10:28:57;;;;;;;28.10;10.83;;;9.70;80.20;;;;;;5034274;28;20185;-73
2020/12/15 10:31:23;;;;;;;24.10;10.00;;;9.70;79.60;;;;;;5031550;28;20216;-73
2020/12/15 10:33:49;;;;;;;33.43;10.50;;;9.70;79.30;;;;;;5030068;28;20188;-72
2020/12/15 10:36:16;;;;;;;32.73;11.67;;;9.70;79.60;;;;;;5030267;28;20822;-72
2020/12/15 10:38:42;;;;;;;20.50;10.60;;;9.80;79.70;;;;;;5030398;28;20208;-73
2020/12/15 10:41:08;;;;;;;20.13;10.00;;;9.80;79.60;;;;;;5030787;28;20529;-74
2020/12/15 10:43:34;;;;;;;26.83;11.73;;;9.80;79.70;;;;;;5031217;28;20490;-73
2020/12/15 10:46:00;;;;;;;23.10;11.03;;;9.90;79.50;;;;;;5028753;28;20185;-73
2020/12/15 10:48:26;;;;;;;23.33;9.73;;;10.00;79.00;;;;;;5030780;28;20435;-73
2020/12/15 10:50:52;;;;;;;27.90;10.70;;;10.10;78.10;;;;;;5030704;28;20335;-74
2020/12/15 10:53:18;;;;;;;21.30;10.50;;;10.10;78.30;;;;;;5031169;28;20209;-72
2020/12/15 10:55:48;;;;;;;18.70;9.60;;;10.10;78.30;;;;;;5031095;28;20262;-73
2020/12/15 10:58:14;;;;;;;29.73;10.73;;;10.20;78.40;;;;;;5031912;28;20456;-73
2020/12/15 11:00:40;;;;;;;25.40;11.40;;;10.20;77.70;;;;;;5030575;28;20446;-74
2020/12/15 11:03:06;;;;;;;20.10;10.17;;;10.20;77.60;;;;;;5030840;28;20446;-73
2020/12/15 11:05:32;;;;;;;23.93;9.70;;;10.20;77.40;;;;;;5029251;28;20783;-72
2020/12/15 11:07:57;;;;;;;15.97;9.77;;;10.30;77.40;;;;;;5029278;28;20420;-73
2020/12/15 11:10:23;;;;;;;18.23;9.10;;;10.30;77.60;;;;;;5031313;28;20684;-74
2020/12/15 11:12:49;;;;;;;24.67;11.00;;;10.40;77.40;;;;;;5031459;28;20187;-73
2020/12/15 11:15:15;;;;;;;25.50;10.53;;;10.40;77.40;;;;;;5029645;28;20189;-72
2020/12/15 11:17:41;;;;;;;21.47;11.17;;;10.50;77.40;;;;;;5031099;28;20235;-75
2020/12/15 11:20:07;;;;;;;18.93;9.40;;;10.60;77.40;;;;;;5031517;28;20259;-75
2020/12/15 11:22:33;;;;;;;21.03;9.83;;;10.50;76.50;;;;;;5029849;28;20428;-75
2020/12/15 11:24:59;;;;;;;18.40;9.00;;;10.40;76.70;;;;;;5030276;28;20185;-73
2020/12/15 11:27:24;;;;;;;20.30;8.43;;;10.40;76.80;;;;;;5030480;28;20185;-74
2020/12/15 11:29:50;;;;;;;16.70;8.57;;;10.40;77.70;;;;;;5032137;28;20428;-72
2020/12/15 11:32:16;;;;;;;21.60;9.17;;;10.40;78.70;;;;;;5030656;28;20189;-72
2020/12/15 11:34:42;;;;;;;19.40;9.27;;;10.50;78.60;;;;;;5030128;28;20185;-72
2020/12/15 11:37:10;;;;;;;23.33;9.77;;;10.50;78.60;;;;;;5030177;28;20212;-73
2020/12/15 11:39:36;;;;;;;18.33;10.63;;;10.50;79.20;;;;;;5030385;28;20231;-72
2020/12/15 11:42:06;;;;;;;21.73;10.10;;;10.50;79.50;;;;;;5030314;28;20444;-72
2020/12/15 11:44:33;;;;;;;28.77;10.53;;;10.50;80.50;;;;;;5029692;28;20442;-72
2020/12/15 11:46:59;;;;;;;20.63;10.80;;;10.50;80.90;;;;;;5034912;28;20420;-72
2020/12/15 11:49:24;;;;;;;24.03;11.27;;;10.50;80.50;;;;;;5035773;28;20428;-72
2020/12/15 11:51:54;;;;;;;22.67;11.80;;;10.60;80.30;;;;;;5036743;28;20447;-75
2020/12/15 11:54:20;;;;;;;19.40;10.80;;;10.60;80.30;;;;;;5036618;28;20707;-72
2020/12/15 11:56:50;;;;;;;25.43;11.07;;;10.50;80.80;;;;;;5028848;28;20483;-72
2020/12/15 11:59:16;;;;;;;20.63;11.27;;;10.60;80.80;;;;;;5015307;28;20427;-75
2020/12/15 12:01:42;;;;;;;22.77;10.60;;;10.50;80.90;;;;;;5015956;28;20448;-75
2020/12/15 12:04:08;;;;;;;23.10;10.67;;;10.50;81.40;;;;;;5013862;28;20444;-74
2020/12/15 12:06:34;;;;;;;21.80;11.13;;;10.50;81.70;;;;;;5023338;28;20220;-72
2020/12/15 12:09:01;;;;;;;19.47;11.20;;;10.60;81.80;;;;;;5040575;28;20723;-74
2020/12/15 12:11:27;;;;;;;21.80;11.90;;;10.70;82.10;;;;;;5037891;28;20522;-73
2020/12/15 12:13:53;;;;;;;21.87;12.73;;;10.80;81.80;;;;;;5026707;28;20483;-73
2020/12/15 12:16:19;;;;;;;25.80;13.00;;;10.80;81.40;;;;;;5034273;28;20934;-73
2020/12/15 12:18:45;;;;;;;20.33;10.80;;;10.80;81.10;;;;;;5022781;28;20481;-74
2020/12/15 12:21:11;;;;;;;19.43;11.30;;;10.80;80.60;;;;;;5031790;28;20201;-73
2020/12/15 12:23:39;;;;;;;28.20;12.60;;;10.80;81.10;;;;;;5033108;28;20272;-74
2020/12/15 12:26:04;;;;;;;28.83;12.30;;;10.70;81.40;;;;;;5032597;28;20181;-74
2020/12/15 12:28:32;;;;;;;23.30;12.10;;;10.60;81.90;;;;;;5032490;28;20430;-74
2020/12/15 12:30:58;;;;;;;24.93;13.07;;;10.60;82.40;;;;;;5034031;28;20856;-73
2020/12/15 12:33:24;;;;;;;19.90;11.40;;;10.60;82.40;;;;;;5033930;28;20457;-74
2020/12/15 12:35:52;;;;;;;30.77;13.63;;;10.60;82.70;;;;;;5032381;28;20427;-73
2020/12/15 12:38:19;;;;;;;24.73;11.40;;;10.70;82.80;;;;;;5032345;28;20583;-74
2020/12/15 12:40:45;;;;;;;27.73;12.90;;;10.80;82.50;;;;;;5032782;28;20439;-73
2020/12/15 12:43:10;;;;;;;22.57;12.10;;;10.80;82.50;;;;;;5032850;28;20602;-73
2020/12/15 12:45:40;;;;;;;32.67;17.13;;;11.00;82.20;;;;;;5030999;28;20189;-73